sensor_id;sensor_type;location;lat;lon;timestamp;temperature;humidity
66184;DHT22;52989;48.796;9.806;2023-03-01T00:02:07;-1.10;92.80
66184;DHT22;52989;48.796;9.806;2023-03-01T00:04:32;-1.20;92.50
66184;DHT22;52989;48.796;9.806;2023-03-01T00:06:59;-1.50;93.10
66184;DHT22;52989;48.796;9.806;2023-03-01T00:09:24;-1.50;93.10
66184;DHT22;52989;48.796;9.806;2023-03-01T00:11:49;-1.20;93.10
66184;DHT22;52989;48.796;9.806;2023-03-01T00:14:15;-1.10;92.70
66184;DHT22;52989;48.796;9.806;2023-03-01T00:16:43;-1.10;92.40
66184;DHT22;52989;48.796;9.806;2023-03-01T00:19:11;-1.40;93.30
66184;DHT22;52989;48.796;9.806;2023-03-01T00:21:37;-1.40;93.40
66184;DHT22;52989;48.796;9.806;2023-03-01T00:24:02;-1.60;93.90
66184;DHT22;52989;48.796;9.806;2023-03-01T00:26:28;-1.50;93.90
66184;DHT22;52989;48.796;9.806;2023-03-01T00:28:53;-1.60;94.20
66184;DHT22;52989;48.796;9.806;2023-03-01T00:31:22;-1.50;94.00
66184;DHT22;52989;48.796;9.806;2023-03-01T00:33:51;-1.50;94.30
66184;DHT22;52989;48.796;9.806;2023-03-01T00:36:17;-1.50;94.10
66184;DHT22;52989;48.796;9.806;2023-03-01T00:38:43;-1.60;94.20
66184;DHT22;52989;48.796;9.806;2023-03-01T00:41:10;-1.60;94.90
66184;DHT22;52989;48.796;9.806;2023-03-01T00:43:36;-1.30;94.40
66184;DHT22;52989;48.796;9.806;2023-03-01T00:46:03;-1.50;94.50
66184;DHT22;52989;48.796;9.806;2023-03-01T00:48:29;-1.50;94.70
66184;DHT22;52989;48.796;9.806;2023-03-01T00:50:54;-1.30;94.70
66184;DHT22;52989;48.796;9.806;2023-03-01T00:53:19;-1.30;95.10
66184;DHT22;52989;48.796;9.806;2023-03-01T00:55:45;-1.20;94.50
66184;DHT22;52989;48.796;9.806;2023-03-01T00:58:10;-1.00;94.10
66184;DHT22;52989;48.796;9.806;2023-03-01T01:00:36;-0.60;94.00
66184;DHT22;52989;48.796;9.806;2023-03-01T01:03:01;-0.80;93.90
66184;DHT22;52989;48.796;9.806;2023-03-01T01:05:27;-0.50;93.40
66184;DHT22;52989;48.796;9.806;2023-03-01T01:07:52;-0.80;93.60
66184;DHT22;52989;48.796;9.806;2023-03-01T01:10:18;-0.30;94.00
66184;DHT22;52989;48.796;9.806;2023-03-01T01:12:45;-0.60;93.30
66184;DHT22;52989;48.796;9.806;2023-03-01T01:15:10;0.20;93.40
66184;DHT22;52989;48.796;9.806;2023-03-01T01:17:38;-0.30;92.20
66184;DHT22;52989;48.796;9.806;2023-03-01T01:20:03;-0.30;92.20
66184;DHT22;52989;48.796;9.806;2023-03-01T01:22:29;-0.20;92.90
66184;DHT22;52989;48.796;9.806;2023-03-01T01:24:54;-0.40;93.30
66184;DHT22;52989;48.796;9.806;2023-03-01T01:27:20;-0.40;92.70
66184;DHT22;52989;48.796;9.806;2023-03-01T01:29:45;-0.50;93.30
66184;DHT22;52989;48.796;9.806;2023-03-01T01:32:11;-0.60;93.70
66184;DHT22;52989;48.796;9.806;2023-03-01T01:34:36;-0.70;93.90
66184;DHT22;52989;48.796;9.806;2023-03-01T01:37:02;-0.80;94.70
66184;DHT22;52989;48.796;9.806;2023-03-01T01:39:28;-0.40;95.30
66184;DHT22;52989;48.796;9.806;2023-03-01T01:41:53;-0.50;93.60
66184;DHT22;52989;48.796;9.806;2023-03-01T01:46:49;-0.40;93.60
66184;DHT22;52989;48.796;9.806;2023-03-01T01:49:35;-0.30;94.00
66184;DHT22;52989;48.796;9.806;2023-03-01T01:52:07;-0.60;94.10
66184;DHT22;52989;48.796;9.806;2023-03-01T01:57:03;-0.60;94.70
66184;DHT22;52989;48.796;9.806;2023-03-01T01:59:29;-0.70;94.10
66184;DHT22;52989;48.796;9.806;2023-03-01T02:01:55;-0.60;94.40
66184;DHT22;52989;48.796;9.806;2023-03-01T02:04:23;-0.60;94.90
66184;DHT22;52989;48.796;9.806;2023-03-01T02:06:49;0.00;93.70
66184;DHT22;52989;48.796;9.806;2023-03-01T02:09:17;-0.50;94.30
66184;DHT22;52989;48.796;9.806;2023-03-01T02:11:44;-0.60;93.80
66184;DHT22;52989;48.796;9.806;2023-03-01T02:14:09;-0.60;94.40
66184;DHT22;52989;48.796;9.806;2023-03-01T02:16:35;-0.50;94.30
66184;DHT22;52989;48.796;9.806;2023-03-01T02:19:00;-0.40;93.90
66184;DHT22;52989;48.796;9.806;2023-03-01T02:21:30;0.00;93.50
66184;DHT22;52989;48.796;9.806;2023-03-01T02:23:59;-0.10;93.30
66184;DHT22;52989;48.796;9.806;2023-03-01T02:26:32;0.40;94.90
66184;DHT22;52989;48.796;9.806;2023-03-01T02:29:00;0.50;91.80
66184;DHT22;52989;48.796;9.806;2023-03-01T02:31:25;0.30;92.00
66184;DHT22;52989;48.796;9.806;2023-03-01T02:34:18;-0.10;92.20
66184;DHT22;52989;48.796;9.806;2023-03-01T02:36:48;-0.40;93.60
66184;DHT22;52989;48.796;9.806;2023-03-01T02:39:20;-0.20;93.40
66184;DHT22;52989;48.796;9.806;2023-03-01T02:41:49;0.00;94.30
66184;DHT22;52989;48.796;9.806;2023-03-01T02:44:15;0.30;92.90
66184;DHT22;52989;48.796;9.806;2023-03-01T02:46:42;0.30;92.30
66184;DHT22;52989;48.796;9.806;2023-03-01T02:57:31;0.10;92.90
66184;DHT22;52989;48.796;9.806;2023-03-01T02:59:58;0.00;93.10
66184;DHT22;52989;48.796;9.806;2023-03-01T03:02:26;0.70;92.90
66184;DHT22;52989;48.796;9.806;2023-03-01T03:05:05;1.00;91.20
66184;DHT22;52989;48.796;9.806;2023-03-01T03:07:32;0.60;92.10
66184;DHT22;52989;48.796;9.806;2023-03-01T03:09:58;0.90;92.70
66184;DHT22;52989;48.796;9.806;2023-03-01T03:12:24;1.70;92.30
66184;DHT22;52989;48.796;9.806;2023-03-01T03:14:49;1.10;90.70
66184;DHT22;52989;48.796;9.806;2023-03-01T03:17:15;0.90;91.70
66184;DHT22;52989;48.796;9.806;2023-03-01T03:19:40;0.30;91.60
66184;DHT22;52989;48.796;9.806;2023-03-01T03:22:05;0.20;91.70
66184;DHT22;52989;48.796;9.806;2023-03-01T03:24:34;0.20;91.80
66184;DHT22;52989;48.796;9.806;2023-03-01T03:27:03;0.50;91.90
66184;DHT22;52989;48.796;9.806;2023-03-01T03:29:29;0.10;92.10
66184;DHT22;52989;48.796;9.806;2023-03-01T03:31:54;-0.10;92.70
66184;DHT22;52989;48.796;9.806;2023-03-01T03:34:20;0.50;91.90
66184;DHT22;52989;48.796;9.806;2023-03-01T03:36:45;0.40;92.20
66184;DHT22;52989;48.796;9.806;2023-03-01T03:39:10;0.10;92.00
66184;DHT22;52989;48.796;9.806;2023-03-01T03:41:36;0.30;92.10
66184;DHT22;52989;48.796;9.806;2023-03-01T03:44:01;0.00;92.00
66184;DHT22;52989;48.796;9.806;2023-03-01T03:46:27;0.10;92.40
66184;DHT22;52989;48.796;9.806;2023-03-01T03:48:52;0.60;92.60
66184;DHT22;52989;48.796;9.806;2023-03-01T03:51:18;0.40;92.00
66184;DHT22;52989;48.796;9.806;2023-03-01T03:53:43;0.50;91.70
66184;DHT22;52989;48.796;9.806;2023-03-01T03:56:09;0.20;91.70
66184;DHT22;52989;48.796;9.806;2023-03-01T03:58:35;0.00;92.10
66184;DHT22;52989;48.796;9.806;2023-03-01T04:01:01;0.90;92.00
66184;DHT22;52989;48.796;9.806;2023-03-01T04:03:27;0.50;91.40
66184;DHT22;52989;48.796;9.806;2023-03-01T04:05:53;0.60;92.30
66184;DHT22;52989;48.796;9.806;2023-03-01T04:08:19;0.40;91.50
66184;DHT22;52989;48.796;9.806;2023-03-01T04:10:47;0.60;91.20
66184;DHT22;52989;48.796;9.806;2023-03-01T04:13:14;0.80;91.80
66184;DHT22;52989;48.796;9.806;2023-03-01T04:15:39;0.30;92.10
66184;DHT22;52989;48.796;9.806;2023-03-01T04:18:06;0.30;92.40
66184;DHT22;52989;48.796;9.806;2023-03-01T04:20:33;0.20;92.20
66184;DHT22;52989;48.796;9.806;2023-03-01T04:25:42;0.30;91.60
66184;DHT22;52989;48.796;9.806;2023-03-01T04:28:10;0.50;91.60
66184;DHT22;52989;48.796;9.806;2023-03-01T04:30:36;0.30;91.80
66184;DHT22;52989;48.796;9.806;2023-03-01T04:33:02;0.30;92.60
66184;DHT22;52989;48.796;9.806;2023-03-01T04:35:29;0.20;92.70
66184;DHT22;52989;48.796;9.806;2023-03-01T04:37:54;0.40;92.50
66184;DHT22;52989;48.796;9.806;2023-03-01T04:40:20;0.40;92.00
66184;DHT22;52989;48.796;9.806;2023-03-01T04:42:46;0.30;92.60
66184;DHT22;52989;48.796;9.806;2023-03-01T04:45:12;0.10;92.20
66184;DHT22;52989;48.796;9.806;2023-03-01T04:47:41;0.10;92.40
66184;DHT22;52989;48.796;9.806;2023-03-01T04:50:08;0.20;92.30
66184;DHT22;52989;48.796;9.806;2023-03-01T04:52:34;0.10;92.70
66184;DHT22;52989;48.796;9.806;2023-03-01T04:55:00;0.30;93.40
66184;DHT22;52989;48.796;9.806;2023-03-01T04:57:25;0.20;92.40
66184;DHT22;52989;48.796;9.806;2023-03-01T04:59:51;0.20;92.00
66184;DHT22;52989;48.796;9.806;2023-03-01T05:02:16;0.30;91.90
66184;DHT22;52989;48.796;9.806;2023-03-01T05:04:42;0.30;92.00
66184;DHT22;52989;48.796;9.806;2023-03-01T05:07:07;0.00;92.30
66184;DHT22;52989;48.796;9.806;2023-03-01T05:09:33;0.10;92.40
66184;DHT22;52989;48.796;9.806;2023-03-01T05:11:59;0.10;92.80
66184;DHT22;52989;48.796;9.806;2023-03-01T05:14:24;0.40;92.30
66184;DHT22;52989;48.796;9.806;2023-03-01T05:16:49;0.10;92.60
66184;DHT22;52989;48.796;9.806;2023-03-01T05:19:15;0.10;93.10
66184;DHT22;52989;48.796;9.806;2023-03-01T05:21:41;0.30;92.60
66184;DHT22;52989;48.796;9.806;2023-03-01T05:24:25;0.50;92.70
66184;DHT22;52989;48.796;9.806;2023-03-01T05:26:52;0.50;91.80
66184;DHT22;52989;48.796;9.806;2023-03-01T05:29:21;0.60;91.90
66184;DHT22;52989;48.796;9.806;2023-03-01T05:31:53;0.40;92.00
66184;DHT22;52989;48.796;9.806;2023-03-01T05:34:22;0.50;92.20
66184;DHT22;52989;48.796;9.806;2023-03-01T05:36:48;0.70;92.30
66184;DHT22;52989;48.796;9.806;2023-03-01T05:39:16;0.40;91.70
66184;DHT22;52989;48.796;9.806;2023-03-01T05:41:42;0.30;92.10
66184;DHT22;52989;48.796;9.806;2023-03-01T05:44:08;0.20;92.20
66184;DHT22;52989;48.796;9.806;2023-03-01T05:46:33;0.70;92.50
66184;DHT22;52989;48.796;9.806;2023-03-01T05:48:59;0.40;91.90
66184;DHT22;52989;48.796;9.806;2023-03-01T05:51:25;0.50;92.40
66184;DHT22;52989;48.796;9.806;2023-03-01T05:53:51;0.20;91.90
66184;DHT22;52989;48.796;9.806;2023-03-01T05:56:16;0.10;92.40
66184;DHT22;52989;48.796;9.806;2023-03-01T05:58:42;0.80;93.40
66184;DHT22;52989;48.796;9.806;2023-03-01T06:01:10;0.70;91.50
66184;DHT22;52989;48.796;9.806;2023-03-01T06:03:36;-0.10;92.10
66184;DHT22;52989;48.796;9.806;2023-03-01T06:06:01;-0.20;93.00
66184;DHT22;52989;48.796;9.806;2023-03-01T06:08:27;-0.50;93.00
66184;DHT22;52989;48.796;9.806;2023-03-01T06:10:52;-0.30;93.80
66184;DHT22;52989;48.796;9.806;2023-03-01T06:13:18;-0.40;93.60
66184;DHT22;52989;48.796;9.806;2023-03-01T06:15:44;-0.50;93.30
66184;DHT22;52989;48.796;9.806;2023-03-01T06:18:09;-0.70;93.90
66184;DHT22;52989;48.796;9.806;2023-03-01T06:20:35;-0.80;94.30
66184;DHT22;52989;48.796;9.806;2023-03-01T06:23:00;-0.50;93.60
66184;DHT22;52989;48.796;9.806;2023-03-01T06:25:26;-0.60;93.70
66184;DHT22;52989;48.796;9.806;2023-03-01T06:27:52;-0.70;94.40
66184;DHT22;52989;48.796;9.806;2023-03-01T06:30:18;-0.40;94.10
66184;DHT22;52989;48.796;9.806;2023-03-01T06:32:44;-0.70;93.70
66184;DHT22;52989;48.796;9.806;2023-03-01T06:35:11;-0.80;94.00
66184;DHT22;52989;48.796;9.806;2023-03-01T06:37:37;-0.80;93.80
66184;DHT22;52989;48.796;9.806;2023-03-01T06:40:03;-0.70;93.90
66184;DHT22;52989;48.796;9.806;2023-03-01T06:42:39;-0.80;94.30
66184;DHT22;52989;48.796;9.806;2023-03-01T06:45:06;-0.60;94.40
66184;DHT22;52989;48.796;9.806;2023-03-01T06:47:32;-0.80;93.70
66184;DHT22;52989;48.796;9.806;2023-03-01T06:49:58;-0.40;94.40
66184;DHT22;52989;48.796;9.806;2023-03-01T06:52:24;-0.50;93.30
66184;DHT22;52989;48.796;9.806;2023-03-01T06:54:49;-0.70;94.00
66184;DHT22;52989;48.796;9.806;2023-03-01T06:57:15;-0.70;93.60
66184;DHT22;52989;48.796;9.806;2023-03-01T06:59:40;-0.70;93.50
66184;DHT22;52989;48.796;9.806;2023-03-01T07:02:06;-0.70;93.60
66184;DHT22;52989;48.796;9.806;2023-03-01T07:04:31;-0.70;93.30
66184;DHT22;52989;48.796;9.806;2023-03-01T07:06:56;-0.50;93.20
66184;DHT22;52989;48.796;9.806;2023-03-01T07:09:22;-0.60;93.00
66184;DHT22;52989;48.796;9.806;2023-03-01T07:11:48;-0.70;93.40
66184;DHT22;52989;48.796;9.806;2023-03-01T07:14:14;-0.50;94.20
66184;DHT22;52989;48.796;9.806;2023-03-01T07:16:39;-0.50;93.20
66184;DHT22;52989;48.796;9.806;2023-03-01T07:19:05;-0.10;93.40
66184;DHT22;52989;48.796;9.806;2023-03-01T07:21:30;-0.50;92.90
66184;DHT22;52989;48.796;9.806;2023-03-01T07:23:56;-0.70;93.60
66184;DHT22;52989;48.796;9.806;2023-03-01T07:26:22;-0.50;93.20
66184;DHT22;52989;48.796;9.806;2023-03-01T07:28:47;-0.40;93.00
66184;DHT22;52989;48.796;9.806;2023-03-01T07:31:14;-0.40;92.80
66184;DHT22;52989;48.796;9.806;2023-03-01T07:33:39;-0.50;92.70
66184;DHT22;52989;48.796;9.806;2023-03-01T07:36:05;-0.40;92.80
66184;DHT22;52989;48.796;9.806;2023-03-01T07:38:30;0.00;92.40
66184;DHT22;52989;48.796;9.806;2023-03-01T07:40:59;0.00;91.60
66184;DHT22;52989;48.796;9.806;2023-03-01T07:43:26;0.00;91.90
66184;DHT22;52989;48.796;9.806;2023-03-01T07:45:51;-0.10;91.90
66184;DHT22;52989;48.796;9.806;2023-03-01T07:48:17;0.00;92.50
66184;DHT22;52989;48.796;9.806;2023-03-01T07:50:42;0.00;92.30
66184;DHT22;52989;48.796;9.806;2023-03-01T07:53:08;0.10;92.70
66184;DHT22;52989;48.796;9.806;2023-03-01T07:55:33;0.20;91.60
66184;DHT22;52989;48.796;9.806;2023-03-01T07:57:59;0.20;91.90
66184;DHT22;52989;48.796;9.806;2023-03-01T08:00:24;0.30;91.30
66184;DHT22;52989;48.796;9.806;2023-03-01T08:02:50;0.20;91.30
66184;DHT22;52989;48.796;9.806;2023-03-01T08:05:15;0.40;91.20
66184;DHT22;52989;48.796;9.806;2023-03-01T08:07:41;0.40;91.20
66184;DHT22;52989;48.796;9.806;2023-03-01T08:10:07;0.80;91.40
66184;DHT22;52989;48.796;9.806;2023-03-01T08:12:32;0.60;90.30
66184;DHT22;52989;48.796;9.806;2023-03-01T08:14:58;0.50;90.80
66184;DHT22;52989;48.796;9.806;2023-03-01T08:17:23;0.50;90.80
66184;DHT22;52989;48.796;9.806;2023-03-01T08:19:49;0.60;90.50
66184;DHT22;52989;48.796;9.806;2023-03-01T08:22:14;0.60;90.50
66184;DHT22;52989;48.796;9.806;2023-03-01T08:24:40;0.60;90.50
66184;DHT22;52989;48.796;9.806;2023-03-01T08:27:05;0.60;90.80
66184;DHT22;52989;48.796;9.806;2023-03-01T08:29:32;0.70;90.30
66184;DHT22;52989;48.796;9.806;2023-03-01T08:31:57;0.90;90.60
66184;DHT22;52989;48.796;9.806;2023-03-01T08:34:23;1.20;90.70
66184;DHT22;52989;48.796;9.806;2023-03-01T08:36:48;1.20;90.00
66184;DHT22;52989;48.796;9.806;2023-03-01T08:39:15;1.10;88.70
66184;DHT22;52989;48.796;9.806;2023-03-01T08:41:41;1.20;90.10
66184;DHT22;52989;48.796;9.806;2023-03-01T08:44:07;1.20;88.20
66184;DHT22;52989;48.796;9.806;2023-03-01T08:46:35;1.40;88.40
66184;DHT22;52989;48.796;9.806;2023-03-01T08:49:04;1.40;88.00
66184;DHT22;52989;48.796;9.806;2023-03-01T08:51:30;1.80;89.00
66184;DHT22;52989;48.796;9.806;2023-03-01T08:53:57;1.70;86.40
66184;DHT22;52989;48.796;9.806;2023-03-01T08:56:23;1.90;86.90
66184;DHT22;52989;48.796;9.806;2023-03-01T08:58:48;2.10;86.90
66184;DHT22;52989;48.796;9.806;2023-03-01T09:01:15;1.90;86.50
66184;DHT22;52989;48.796;9.806;2023-03-01T09:03:41;1.90;86.50
66184;DHT22;52989;48.796;9.806;2023-03-01T09:06:07;2.00;86.40
66184;DHT22;52989;48.796;9.806;2023-03-01T09:08:35;2.00;86.80
66184;DHT22;52989;48.796;9.806;2023-03-01T09:11:01;2.20;86.20
66184;DHT22;52989;48.796;9.806;2023-03-01T09:13:27;2.20;85.20
66184;DHT22;52989;48.796;9.806;2023-03-01T09:15:56;2.10;85.60
66184;DHT22;52989;48.796;9.806;2023-03-01T09:18:22;2.20;85.50
66184;DHT22;52989;48.796;9.806;2023-03-01T09:20:47;2.30;85.10
66184;DHT22;52989;48.796;9.806;2023-03-01T09:23:13;2.30;85.30
66184;DHT22;52989;48.796;9.806;2023-03-01T09:25:38;2.70;85.10
66184;DHT22;52989;48.796;9.806;2023-03-01T09:28:03;2.70;84.30
66184;DHT22;52989;48.796;9.806;2023-03-01T09:30:29;2.80;83.90
66184;DHT22;52989;48.796;9.806;2023-03-01T09:32:56;2.90;83.70
66184;DHT22;52989;48.796;9.806;2023-03-01T09:35:21;2.90;82.90
66184;DHT22;52989;48.796;9.806;2023-03-01T09:37:48;3.20;83.00
66184;DHT22;52989;48.796;9.806;2023-03-01T09:40:24;3.40;82.10
66184;DHT22;52989;48.796;9.806;2023-03-01T09:42:53;3.30;80.40
66184;DHT22;52989;48.796;9.806;2023-03-01T09:45:32;3.60;79.50
66184;DHT22;52989;48.796;9.806;2023-03-01T09:47:58;3.80;79.70
66184;DHT22;52989;48.796;9.806;2023-03-01T09:50:24;3.60;79.10
66184;DHT22;52989;48.796;9.806;2023-03-01T09:53:05;3.80;78.70
66184;DHT22;52989;48.796;9.806;2023-03-01T09:55:54;3.70;78.00
66184;DHT22;52989;48.796;9.806;2023-03-01T10:01:05;3.90;77.30
66184;DHT22;52989;48.796;9.806;2023-03-01T10:03:34;4.50;78.70
66184;DHT22;52989;48.796;9.806;2023-03-01T10:06:04;4.30;76.80
66184;DHT22;52989;48.796;9.806;2023-03-01T10:08:34;4.20;75.90
66184;DHT22;52989;48.796;9.806;2023-03-01T10:11:03;4.10;76.40
66184;DHT22;52989;48.796;9.806;2023-03-01T10:16:14;4.50;75.70
66184;DHT22;52989;48.796;9.806;2023-03-01T10:18:41;4.40;74.90
66184;DHT22;52989;48.796;9.806;2023-03-01T10:21:15;4.50;75.50
66184;DHT22;52989;48.796;9.806;2023-03-01T10:23:41;4.50;75.40
66184;DHT22;52989;48.796;9.806;2023-03-01T10:28:58;4.80;74.10
66184;DHT22;52989;48.796;9.806;2023-03-01T10:31:26;4.70;74.50
66184;DHT22;52989;48.796;9.806;2023-03-01T10:33:54;4.80;74.50
66184;DHT22;52989;48.796;9.806;2023-03-01T10:36:24;5.00;73.90
66184;DHT22;52989;48.796;9.806;2023-03-01T10:38:53;4.80;74.00
66184;DHT22;52989;48.796;9.806;2023-03-01T10:41:20;5.00;75.40
66184;DHT22;52989;48.796;9.806;2023-03-01T10:43:52;5.00;73.50
66184;DHT22;52989;48.796;9.806;2023-03-01T10:46:32;5.00;74.00
66184;DHT22;52989;48.796;9.806;2023-03-01T10:51:29;5.00;74.20
66184;DHT22;52989;48.796;9.806;2023-03-01T10:53:55;5.30;73.30
66184;DHT22;52989;48.796;9.806;2023-03-01T10:56:20;5.30;73.70
66184;DHT22;52989;48.796;9.806;2023-03-01T10:58:59;5.20;73.10
66184;DHT22;52989;48.796;9.806;2023-03-01T11:01:29;5.30;72.90
66184;DHT22;52989;48.796;9.806;2023-03-01T11:06:34;5.60;74.20
66184;DHT22;52989;48.796;9.806;2023-03-01T11:09:19;5.60;72.40
66184;DHT22;52989;48.796;9.806;2023-03-01T11:11:45;5.60;73.20
66184;DHT22;52989;48.796;9.806;2023-03-01T11:14:19;5.70;72.00
66184;DHT22;52989;48.796;9.806;2023-03-01T11:16:46;5.90;73.00
66184;DHT22;52989;48.796;9.806;2023-03-01T11:21:42;5.80;72.20
66184;DHT22;52989;48.796;9.806;2023-03-01T11:24:09;6.00;71.50
66184;DHT22;52989;48.796;9.806;2023-03-01T11:26:37;6.10;71.50
66184;DHT22;52989;48.796;9.806;2023-03-01T11:29:05;6.20;71.60
66184;DHT22;52989;48.796;9.806;2023-03-01T11:31:32;6.20;70.80
66184;DHT22;52989;48.796;9.806;2023-03-01T11:34:42;6.40;71.20
66184;DHT22;52989;48.796;9.806;2023-03-01T11:36:49;6.40;70.70
66184;DHT22;52989;48.796;9.806;2023-03-01T11:41:48;6.50;70.60
66184;DHT22;52989;48.796;9.806;2023-03-01T11:44:21;6.70;70.10
66184;DHT22;52989;48.796;9.806;2023-03-01T12:02:40;6.80;69.30
66184;DHT22;52989;48.796;9.806;2023-03-01T12:08:08;7.30;69.40
66184;DHT22;52989;48.796;9.806;2023-03-01T12:13:08;7.60;68.70
66184;DHT22;52989;48.796;9.806;2023-03-01T12:18:47;8.00;67.80
66184;DHT22;52989;48.796;9.806;2023-03-01T12:28:45;7.40;67.80
66184;DHT22;52989;48.796;9.806;2023-03-01T12:34:01;7.70;67.40
66184;DHT22;52989;48.796;9.806;2023-03-01T12:36:34;7.50;66.90
66184;DHT22;52989;48.796;9.806;2023-03-01T12:49:24;7.80;67.00
66184;DHT22;52989;48.796;9.806;2023-03-01T12:51:56;7.80;66.50
66184;DHT22;52989;48.796;9.806;2023-03-01T12:54:30;7.70;67.40
66184;DHT22;52989;48.796;9.806;2023-03-01T12:56:57;7.80;67.20
66184;DHT22;52989;48.796;9.806;2023-03-01T12:59:35;7.70;67.10
66184;DHT22;52989;48.796;9.806;2023-03-01T13:07:34;8.00;67.60
66184;DHT22;52989;48.796;9.806;2023-03-01T13:17:49;7.80;67.70
66184;DHT22;52989;48.796;9.806;2023-03-01T13:20:15;7.90;67.80
66184;DHT22;52989;48.796;9.806;2023-03-01T13:22:41;7.90;67.60
66184;DHT22;52989;48.796;9.806;2023-03-01T13:25:25;7.80;67.10
66184;DHT22;52989;48.796;9.806;2023-03-01T13:27:51;7.80;68.10
66184;DHT22;52989;48.796;9.806;2023-03-01T13:35:55;7.80;67.60
66184;DHT22;52989;48.796;9.806;2023-03-01T13:41:02;8.40;67.90
66184;DHT22;52989;48.796;9.806;2023-03-01T13:43:29;8.00;66.60
66184;DHT22;52989;48.796;9.806;2023-03-01T13:45:55;7.90;67.10
66184;DHT22;52989;48.796;9.806;2023-03-01T13:48:31;8.00;67.80
66184;DHT22;52989;48.796;9.806;2023-03-01T13:51:03;8.00;67.30
66184;DHT22;52989;48.796;9.806;2023-03-01T13:53:31;8.30;66.80
66184;DHT22;52989;48.796;9.806;2023-03-01T13:56:00;8.20;66.70
66184;DHT22;52989;48.796;9.806;2023-03-01T13:58:30;8.00;66.50
66184;DHT22;52989;48.796;9.806;2023-03-01T14:00:57;7.80;66.70
66184;DHT22;52989;48.796;9.806;2023-03-01T14:03:24;7.90;66.90
66184;DHT22;52989;48.796;9.806;2023-03-01T14:08:34;7.80;66.50
66184;DHT22;52989;48.796;9.806;2023-03-01T14:13:48;8.10;66.20
66184;DHT22;52989;48.796;9.806;2023-03-01T14:16:20;8.10;66.40
66184;DHT22;52989;48.796;9.806;2023-03-01T14:18:55;8.10;66.70
66184;DHT22;52989;48.796;9.806;2023-03-01T14:21:25;8.00;66.60
66184;DHT22;52989;48.796;9.806;2023-03-01T14:23:51;8.00;66.30
66184;DHT22;52989;48.796;9.806;2023-03-01T14:26:21;7.90;66.30
66184;DHT22;52989;48.796;9.806;2023-03-01T14:28:47;7.90;66.20
66184;DHT22;52989;48.796;9.806;2023-03-01T14:31:32;8.00;67.40
66184;DHT22;52989;48.796;9.806;2023-03-01T14:34:01;8.30;66.20
66184;DHT22;52989;48.796;9.806;2023-03-01T14:36:27;8.30;66.00
66184;DHT22;52989;48.796;9.806;2023-03-01T14:38:53;8.10;65.40
66184;DHT22;52989;48.796;9.806;2023-03-01T14:41:20;8.10;65.90
66184;DHT22;52989;48.796;9.806;2023-03-01T14:43:47;8.20;65.90
66184;DHT22;52989;48.796;9.806;2023-03-01T14:46:31;8.40;65.30
66184;DHT22;52989;48.796;9.806;2023-03-01T14:49:42;8.20;65.10
66184;DHT22;52989;48.796;9.806;2023-03-01T14:51:47;8.30;65.10
66184;DHT22;52989;48.796;9.806;2023-03-01T14:54:25;8.20;66.40
66184;DHT22;52989;48.796;9.806;2023-03-01T14:56:53;8.30;65.30
66184;DHT22;52989;48.796;9.806;2023-03-01T14:59:21;8.40;65.90
66184;DHT22;52989;48.796;9.806;2023-03-01T15:01:46;8.30;64.80
66184;DHT22;52989;48.796;9.806;2023-03-01T15:04:12;8.40;64.80
66184;DHT22;52989;48.796;9.806;2023-03-01T15:06:38;8.30;64.70
66184;DHT22;52989;48.796;9.806;2023-03-01T15:09:04;8.00;65.20
66184;DHT22;52989;48.796;9.806;2023-03-01T15:11:30;8.00;65.70
66184;DHT22;52989;48.796;9.806;2023-03-01T15:13:56;8.10;65.20
66184;DHT22;52989;48.796;9.806;2023-03-01T15:16:24;8.30;66.10
66184;DHT22;52989;48.796;9.806;2023-03-01T15:18:53;8.10;65.30
66184;DHT22;52989;48.796;9.806;2023-03-01T15:21:23;8.10;65.60
66184;DHT22;52989;48.796;9.806;2023-03-01T15:23:53;7.90;65.70
66184;DHT22;52989;48.796;9.806;2023-03-01T15:26:30;8.00;65.10
66184;DHT22;52989;48.796;9.806;2023-03-01T15:28:56;8.10;65.70
66184;DHT22;52989;48.796;9.806;2023-03-01T15:31:26;8.10;66.20
66184;DHT22;52989;48.796;9.806;2023-03-01T15:33:52;8.00;65.50
66184;DHT22;52989;48.796;9.806;2023-03-01T15:38:56;7.80;66.10
66184;DHT22;52989;48.796;9.806;2023-03-01T15:41:32;7.70;65.80
66184;DHT22;52989;48.796;9.806;2023-03-01T15:43:58;7.80;66.50
66184;DHT22;52989;48.796;9.806;2023-03-01T15:46:33;7.80;65.70
66184;DHT22;52989;48.796;9.806;2023-03-01T15:49:04;7.70;66.10
66184;DHT22;52989;48.796;9.806;2023-03-01T15:51:33;7.60;66.20
66184;DHT22;52989;48.796;9.806;2023-03-01T15:54:00;7.50;65.90
66184;DHT22;52989;48.796;9.806;2023-03-01T15:56:27;7.50;66.10
66184;DHT22;52989;48.796;9.806;2023-03-01T15:58:52;7.40;67.10
66184;DHT22;52989;48.796;9.806;2023-03-01T16:01:18;7.40;67.00
66184;DHT22;52989;48.796;9.806;2023-03-01T16:03:44;7.40;66.70
66184;DHT22;52989;48.796;9.806;2023-03-01T16:06:09;7.60;66.40
66184;DHT22;52989;48.796;9.806;2023-03-01T16:08:35;7.60;66.80
66184;DHT22;52989;48.796;9.806;2023-03-01T16:11:01;7.40;66.70
66184;DHT22;52989;48.796;9.806;2023-03-01T16:13:30;7.50;67.00
66184;DHT22;52989;48.796;9.806;2023-03-01T16:15:56;7.60;66.60
66184;DHT22;52989;48.796;9.806;2023-03-01T16:18:22;7.60;68.10
66184;DHT22;52989;48.796;9.806;2023-03-01T16:20:47;7.40;67.00
66184;DHT22;52989;48.796;9.806;2023-03-01T16:23:14;7.30;66.80
66184;DHT22;52989;48.796;9.806;2023-03-01T16:25:40;7.30;66.80
66184;DHT22;52989;48.796;9.806;2023-03-01T16:28:05;7.40;67.60
66184;DHT22;52989;48.796;9.806;2023-03-01T16:30:34;7.00;67.60
66184;DHT22;52989;48.796;9.806;2023-03-01T16:33:00;7.00;68.20
66184;DHT22;52989;48.796;9.806;2023-03-01T16:35:26;7.20;68.30
66184;DHT22;52989;48.796;9.806;2023-03-01T16:37:51;7.10;67.80
66184;DHT22;52989;48.796;9.806;2023-03-01T16:40:20;6.80;67.90
66184;DHT22;52989;48.796;9.806;2023-03-01T16:42:49;6.70;68.60
66184;DHT22;52989;48.796;9.806;2023-03-01T16:45:15;6.50;68.80
66184;DHT22;52989;48.796;9.806;2023-03-01T16:47:40;6.30;69.30
66184;DHT22;52989;48.796;9.806;2023-03-01T16:50:06;6.10;70.00
66184;DHT22;52989;48.796;9.806;2023-03-01T16:52:31;6.00;70.10
66184;DHT22;52989;48.796;9.806;2023-03-01T16:54:58;5.80;70.90
66184;DHT22;52989;48.796;9.806;2023-03-01T16:57:23;5.70;71.60
66184;DHT22;52989;48.796;9.806;2023-03-01T16:59:52;5.70;70.90
66184;DHT22;52989;48.796;9.806;2023-03-01T17:02:20;5.60;71.70
66184;DHT22;52989;48.796;9.806;2023-03-01T17:04:53;5.60;71.10
66184;DHT22;52989;48.796;9.806;2023-03-01T17:07:18;5.30;72.00
66184;DHT22;52989;48.796;9.806;2023-03-01T17:09:44;5.20;72.00
66184;DHT22;52989;48.796;9.806;2023-03-01T17:12:11;5.00;72.50
66184;DHT22;52989;48.796;9.806;2023-03-01T17:14:37;5.20;72.80
66184;DHT22;52989;48.796;9.806;2023-03-01T17:17:03;5.10;72.50
66184;DHT22;52989;48.796;9.806;2023-03-01T17:19:29;4.90;73.20
66184;DHT22;52989;48.796;9.806;2023-03-01T17:21:56;4.90;73.40
66184;DHT22;52989;48.796;9.806;2023-03-01T17:24:22;4.90;73.70
66184;DHT22;52989;48.796;9.806;2023-03-01T17:26:47;4.70;74.10
66184;DHT22;52989;48.796;9.806;2023-03-01T17:29:13;4.60;73.90
66184;DHT22;52989;48.796;9.806;2023-03-01T17:31:38;4.70;73.90
66184;DHT22;52989;48.796;9.806;2023-03-01T17:34:04;4.60;74.50